Pilot Point, Texas
Current Conditions -  °F | °C
As of 11:53 AM on Thursday 27 Nov 2014 (Local Time) from KDTO Reporting Station
Clear Clear  
Wind Chill: 51°   Ceiling: Unl
Heat Index: 51°   Visibility: 10mi
Dew Point: 22°   Wind: 6mph
Humidity: 32%   Direction: NA
Pressure: 30.52"   Gusts: NA
Location:  33.4°N, 96.96°W
Report Text: KDTO 271753Z VRB05KT 10SM CLR 11/M06 A3052 RMK AO2 SLP334 T01061056 10106 21006 58010
Loading
Personal Weather Stations






























Interactive Weather Map New forecast layout! Learn more

10-Day Weather Forecast

Advertisements
Track Severe Weather on mobile